createdAt,value
2023-04-15T00:00:16.812Z,66.05
2023-04-15T00:00:51.959Z,65.80
2023-04-15T00:01:24.997Z,65.40
2023-04-15T00:01:59.009Z,64.40
2023-04-15T00:02:31.290Z,65.20
2023-04-15T00:03:05.299Z,64.95
2023-04-15T00:03:37.718Z,65.90
2023-04-15T00:04:10.223Z,65.30
2023-04-15T00:04:43.263Z,64.80
2023-04-15T00:05:15.669Z,66.05
2023-04-15T00:05:48.609Z,64.78
2023-04-15T00:06:20.643Z,65.13
2023-04-15T00:06:53.203Z,65.78
2023-04-15T00:07:26.229Z,64.15
2023-04-15T00:07:58.890Z,65.10
2023-04-15T00:08:31.076Z,64.63
2023-04-15T00:09:03.888Z,64.85
2023-04-15T00:09:36.901Z,65.00
2023-04-15T00:10:09.333Z,65.20
2023-04-15T00:10:44.151Z,65.00
2023-04-15T00:11:17.197Z,64.07
2023-04-15T00:11:50.723Z,65.10
2023-04-15T00:12:22.875Z,64.90
2023-04-15T00:12:55.806Z,64.43
2023-04-15T00:13:27.728Z,64.85
2023-04-15T00:14:00.308Z,64.97
2023-04-15T00:14:32.250Z,64.70
2023-04-15T00:15:06.850Z,64.55
2023-04-15T00:15:39.148Z,64.78
2023-04-15T00:16:11.582Z,65.68
2023-04-15T00:16:44.726Z,65.20
2023-04-15T00:17:17.101Z,64.10
2023-04-15T00:17:51.360Z,64.03
2023-04-15T00:18:26.080Z,63.75
2023-04-15T00:18:58.174Z,64.78
2023-04-15T00:19:30.503Z,65.78
2023-04-15T00:20:04.011Z,64.57
2023-04-15T00:20:35.982Z,63.53
2023-04-15T00:21:08.061Z,66.30
2023-04-15T00:21:41.318Z,64.47
2023-04-15T00:22:13.704Z,64.93
2023-04-15T00:22:46.393Z,65.03
2023-04-15T00:23:19.399Z,65.57
2023-04-15T00:23:53.684Z,63.88
2023-04-15T00:24:25.622Z,64.25
2023-04-15T00:24:58.511Z,65.00
2023-04-15T00:25:30.469Z,64.75
2023-04-15T00:26:02.664Z,64.50
2023-04-15T00:26:35.746Z,65.88
2023-04-15T00:27:09.105Z,64.43
2023-04-15T00:27:41.081Z,63.80
2023-04-15T00:28:14.193Z,63.75
2023-04-15T00:28:46.195Z,64.85
2023-04-15T00:29:19.115Z,63.95
2023-04-15T00:29:52.655Z,63.15
2023-04-15T00:30:25.716Z,63.42
2023-04-15T00:30:58.085Z,64.47
2023-04-15T00:31:31.376Z,63.65
2023-04-15T00:32:03.327Z,64.50
2023-04-15T00:32:35.561Z,64.32
2023-04-15T00:33:08.619Z,64.20
2023-04-15T00:33:40.617Z,64.10
2023-04-15T00:34:12.869Z,63.20
2023-04-15T00:34:46.301Z,64.00
2023-04-15T00:35:18.885Z,63.38
2023-04-15T00:35:51.012Z,63.90
2023-04-15T00:36:24.457Z,63.05
2023-04-15T00:36:56.339Z,64.07
2023-04-15T00:37:28.245Z,64.03
2023-04-15T00:38:01.547Z,63.80
2023-04-15T00:38:33.519Z,64.85
2023-04-15T00:39:05.472Z,63.63
2023-04-15T00:39:38.317Z,62.67
2023-04-15T00:40:12.891Z,64.18
2023-04-15T00:40:44.956Z,65.70
2023-04-15T00:41:17.905Z,64.57
2023-04-15T00:41:49.969Z,63.88
2023-04-15T00:42:24.879Z,63.85
2023-04-15T00:42:57.799Z,63.45
2023-04-15T00:43:29.730Z,64.65
2023-04-15T00:44:02.487Z,63.72
2023-04-15T00:44:35.333Z,63.00
2023-04-15T00:45:09.050Z,63.83
2023-04-15T00:45:41.459Z,64.18
2023-04-15T00:46:17.652Z,64.25
2023-04-15T00:46:51.304Z,63.78
2023-04-15T00:47:23.305Z,64.10
2023-04-15T00:47:56.752Z,65.82
2023-04-15T00:48:28.808Z,63.67
2023-04-15T00:49:01.169Z,63.80
2023-04-15T00:49:34.214Z,63.97
2023-04-15T00:50:08.673Z,63.80
2023-04-15T00:50:40.596Z,64.57
2023-04-15T00:51:13.828Z,64.15
2023-04-15T00:51:45.766Z,63.67
2023-04-15T00:52:18.084Z,63.95
2023-04-15T00:52:50.974Z,64.35
2023-04-15T00:53:23.000Z,64.43
2023-04-15T00:53:54.915Z,63.40
2023-04-15T00:54:28.165Z,63.67
2023-04-15T00:55:00.560Z,63.53
2023-04-15T00:55:32.613Z,64.15
2023-04-15T00:56:06.213Z,63.40
2023-04-15T00:56:38.822Z,64.07
2023-04-15T00:57:10.778Z,64.32
2023-04-15T00:57:46.047Z,63.78
2023-04-15T00:58:18.657Z,64.13
2023-04-15T00:58:51.584Z,64.20
2023-04-15T00:59:24.925Z,64.93
2023-04-15T00:59:57.204Z,64.75
2023-04-15T01:00:30.477Z,63.65
2023-04-15T01:01:05.459Z,63.35
2023-04-15T01:01:38.543Z,64.05
2023-04-15T01:02:10.741Z,63.88
2023-04-15T01:02:43.846Z,63.92
2023-04-15T01:03:16.258Z,64.63
2023-04-15T01:03:49.676Z,64.47
2023-04-15T01:04:23.078Z,64.28
2023-04-15T01:04:56.400Z,63.45
2023-04-15T01:05:28.747Z,65.32
2023-04-15T01:06:03.900Z,64.50
2023-04-15T01:06:36.312Z,64.28
2023-04-15T01:07:08.292Z,63.50
2023-04-15T01:07:41.243Z,64.32
2023-04-15T01:08:13.212Z,64.75
2023-04-15T01:08:45.523Z,63.47
2023-04-15T01:09:17.713Z,64.05
2023-04-15T01:09:50.677Z,63.88
2023-04-15T01:10:23.004Z,64.15
2023-04-15T01:10:56.596Z,64.43
2023-04-15T01:11:30.628Z,64.13
2023-04-15T01:12:04.147Z,63.70
2023-04-15T01:12:37.762Z,63.70
2023-04-15T01:13:12.236Z,63.83
2023-04-15T01:13:44.969Z,63.90
2023-04-15T01:14:17.424Z,63.78
2023-04-15T01:14:50.323Z,64.43
2023-04-15T01:15:22.465Z,64.05
2023-04-15T01:15:56.097Z,64.63
2023-04-15T01:16:28.783Z,63.78
2023-04-15T01:17:02.170Z,63.72
2023-04-15T01:17:34.336Z,63.08
2023-04-15T01:18:07.506Z,65.15
2023-04-15T01:18:41.104Z,63.65
2023-04-15T01:19:16.656Z,63.70
2023-04-15T01:19:49.790Z,64.20
2023-04-15T01:20:22.246Z,63.83
2023-04-15T01:20:54.536Z,63.85
2023-04-15T01:21:30.324Z,65.00
2023-04-15T01:22:03.064Z,64.38
2023-04-15T01:22:35.898Z,64.90
2023-04-15T01:23:08.909Z,64.07
2023-04-15T01:23:40.927Z,64.88
2023-04-15T01:24:16.431Z,63.72
2023-04-15T01:24:55.882Z,63.90
2023-04-15T01:25:33.053Z,64.72
2023-04-15T01:26:05.497Z,63.42
2023-04-15T01:26:39.178Z,65.18
2023-04-15T01:27:13.163Z,64.55
2023-04-15T01:27:45.393Z,64.32
2023-04-15T01:28:18.356Z,63.70
2023-04-15T01:28:50.664Z,63.45
2023-04-15T01:29:23.237Z,63.47
2023-04-15T01:29:57.553Z,64.32
2023-04-15T01:30:29.909Z,63.47
2023-04-15T01:31:13.580Z,65.38
2023-04-15T01:31:52.023Z,63.47
2023-04-15T01:32:24.471Z,64.35
2023-04-15T01:32:58.172Z,65.25
2023-04-15T01:33:30.099Z,62.67
2023-04-15T01:34:02.154Z,64.47
2023-04-15T01:34:35.960Z,63.55
2023-04-15T01:35:08.813Z,63.83
2023-04-15T01:35:40.987Z,64.00
2023-04-15T01:36:14.341Z,63.50
2023-04-15T01:36:46.446Z,64.47
2023-04-15T01:37:19.266Z,63.95
2023-04-15T01:37:52.559Z,63.30
2023-04-15T01:38:24.638Z,63.38
2023-04-15T01:39:00.145Z,64.07
2023-04-15T01:39:33.670Z,64.10
2023-04-15T01:40:07.340Z,63.65
2023-04-15T01:40:43.777Z,64.05
2023-04-15T01:41:15.718Z,64.00
2023-04-15T01:41:47.902Z,62.60
2023-04-15T01:42:22.846Z,64.43
2023-04-15T01:42:54.816Z,63.53
2023-04-15T01:43:26.904Z,64.18
2023-04-15T01:43:59.860Z,63.13
2023-04-15T01:44:31.764Z,64.45
2023-04-15T01:45:04.061Z,64.20
2023-04-15T01:45:36.283Z,63.67
2023-04-15T01:46:10.567Z,63.78
2023-04-15T01:46:42.540Z,63.92
2023-04-15T01:47:14.793Z,63.83
2023-04-15T01:47:48.028Z,63.88
2023-04-15T01:48:20.092Z,65.65
2023-04-15T01:48:52.050Z,63.42
2023-04-15T01:49:25.027Z,64.20
2023-04-15T01:49:59.236Z,63.97
2023-04-15T01:50:31.488Z,63.65
2023-04-15T01:51:04.560Z,63.70
2023-04-15T01:51:36.465Z,64.10
2023-04-15T01:52:09.103Z,64.20
2023-04-15T01:52:42.375Z,64.43
2023-04-15T01:53:14.416Z,64.82
2023-04-15T01:53:46.579Z,63.90
2023-04-15T01:54:19.487Z,64.82
2023-04-15T01:54:51.453Z,64.45
2023-04-15T01:55:24.348Z,63.58
2023-04-15T01:55:58.792Z,64.60
2023-04-15T01:56:30.766Z,64.40
2023-04-15T01:57:03.617Z,63.53
2023-04-15T01:57:36.987Z,64.68
2023-04-15T01:58:09.050Z,63.75
2023-04-15T01:58:41.320Z,63.53
2023-04-15T01:59:14.203Z,64.88
2023-04-15T01:59:46.122Z,64.65
2023-04-15T02:00:18.039Z,64.38
2023-04-15T02:00:51.023Z,64.50
2023-04-15T02:01:23.109Z,65.32
2023-04-15T02:01:55.276Z,65.32
2023-04-15T02:02:28.295Z,63.95
2023-04-15T02:03:01.757Z,63.40
2023-04-15T02:03:33.962Z,64.28
2023-04-15T02:04:08.134Z,64.88
2023-04-15T02:04:40.343Z,63.90
2023-04-15T02:05:12.226Z,63.47
2023-04-15T02:05:45.333Z,64.43
2023-04-15T02:06:18.369Z,64.53
2023-04-15T02:06:50.310Z,64.63
2023-04-15T02:07:24.226Z,63.58
2023-04-15T02:07:56.183Z,64.85
2023-04-15T02:08:28.656Z,64.22
2023-04-15T02:09:01.758Z,64.63
2023-04-15T02:09:34.082Z,65.25
2023-04-15T02:10:06.545Z,65.15
2023-04-15T02:10:41.689Z,65.10
2023-04-15T02:11:15.485Z,64.70
2023-04-15T02:11:47.455Z,64.07
2023-04-15T02:12:20.359Z,65.50
2023-04-15T02:12:52.223Z,63.67
2023-04-15T02:13:24.266Z,64.53
2023-04-15T02:13:57.301Z,64.40
2023-04-15T02:14:31.515Z,64.85
2023-04-15T02:15:03.958Z,65.47
2023-04-15T02:15:37.136Z,64.30
2023-04-15T02:16:16.718Z,64.45
2023-04-15T02:16:49.497Z,65.47
2023-04-15T02:17:22.655Z,63.90
2023-04-15T02:17:55.473Z,63.80
2023-04-15T02:18:27.485Z,64.20
2023-04-15T02:19:01.777Z,65.22
2023-04-15T02:19:33.970Z,64.80
2023-04-15T02:20:10.717Z,63.70
2023-04-15T02:20:44.556Z,64.63
2023-04-15T02:21:16.487Z,64.18
2023-04-15T02:21:48.400Z,64.40
2023-04-15T02:22:24.095Z,64.65
2023-04-15T02:22:56.761Z,64.18
2023-04-15T02:23:28.680Z,64.63
2023-04-15T02:24:02.288Z,64.43
2023-04-15T02:24:34.435Z,64.53
2023-04-15T02:25:09.445Z,64.68
2023-04-15T02:25:42.952Z,66.60
2023-04-15T02:26:26.987Z,64.05
2023-04-15T02:26:59.708Z,65.72
2023-04-15T02:27:32.984Z,65.20
2023-04-15T02:28:05.431Z,64.50
2023-04-15T02:28:37.423Z,65.18
2023-04-15T02:29:10.375Z,66.13
2023-04-15T02:29:43.120Z,64.88
2023-04-15T02:30:15.235Z,64.57
2023-04-15T02:30:50.826Z,65.32
2023-04-15T02:31:22.920Z,65.95
2023-04-15T02:31:54.910Z,66.72
2023-04-15T02:32:26.856Z,64.70
2023-04-15T02:33:01.814Z,65.40
2023-04-15T02:33:33.947Z,65.63
2023-04-15T02:34:06.297Z,64.05
2023-04-15T02:34:41.226Z,64.90
2023-04-15T02:35:14.227Z,65.13
2023-04-15T02:35:46.546Z,64.18
2023-04-15T02:36:21.042Z,64.28
2023-04-15T02:36:57.185Z,64.30
2023-04-15T02:37:31.115Z,65.30
2023-04-15T02:38:04.358Z,67.20
2023-04-15T02:38:38.179Z,64.50
2023-04-15T02:39:10.167Z,65.53
2023-04-15T02:39:43.069Z,64.18
2023-04-15T02:40:15.077Z,64.75
2023-04-15T02:40:49.595Z,64.43
2023-04-15T02:41:27.161Z,65.15
2023-04-15T02:42:01.070Z,65.10
2023-04-15T02:42:33.122Z,64.95
2023-04-15T02:43:07.395Z,63.40
2023-04-15T02:43:40.087Z,65.55
2023-04-15T02:44:13.011Z,65.10
2023-04-15T02:44:45.988Z,66.88
2023-04-15T02:45:20.330Z,65.75
2023-04-15T02:45:52.355Z,65.38
2023-04-15T02:46:27.439Z,65.57
2023-04-15T02:46:59.704Z,66.63
2023-04-15T02:47:31.684Z,65.28
2023-04-15T02:48:06.642Z,65.70
2023-04-15T02:48:38.685Z,65.15
2023-04-15T02:49:11.276Z,65.18
2023-04-15T02:49:44.156Z,65.03
2023-04-15T02:50:16.566Z,64.72
2023-04-15T02:50:48.831Z,65.53
2023-04-15T02:51:23.522Z,64.10
2023-04-15T02:51:55.453Z,64.72
2023-04-15T02:52:27.567Z,65.25
2023-04-15T02:53:01.596Z,65.15
2023-04-15T02:53:34.215Z,64.13
2023-04-15T02:54:06.195Z,64.55
2023-04-15T02:54:39.078Z,65.00
2023-04-15T02:55:11.071Z,64.22
2023-04-15T02:55:43.172Z,65.03
2023-04-15T02:56:17.325Z,64.75
2023-04-15T02:56:49.986Z,64.68
2023-04-15T02:57:23.312Z,64.20
2023-04-15T02:57:57.238Z,64.43
2023-04-15T02:58:29.295Z,64.70
2023-04-15T02:59:01.592Z,65.43
2023-04-15T02:59:33.924Z,64.70
2023-04-15T03:00:09.711Z,63.83
2023-04-15T03:00:43.670Z,65.05
2023-04-15T03:01:15.714Z,64.80
2023-04-15T03:01:48.864Z,66.18
2023-04-15T03:02:21.161Z,64.25
2023-04-15T03:02:58.951Z,63.95
2023-04-15T03:03:32.088Z,65.10
2023-04-15T03:04:04.487Z,65.07
2023-04-15T03:04:36.521Z,64.22
2023-04-15T03:05:13.792Z,65.05
2023-04-15T03:05:51.625Z,63.95
2023-04-15T03:06:24.798Z,64.82
2023-04-15T03:06:57.389Z,64.80
2023-04-15T03:07:31.118Z,63.40
2023-04-15T03:08:04.169Z,66.63
2023-04-15T03:08:36.457Z,65.55
2023-04-15T03:09:08.697Z,64.68
2023-04-15T03:09:42.700Z,63.80
2023-04-15T03:10:15.503Z,66.25
2023-04-15T03:10:48.589Z,66.50
2023-04-15T03:11:21.447Z,65.10
2023-04-15T03:11:54.736Z,63.65
2023-04-15T03:12:30.354Z,65.25
2023-04-15T03:13:02.956Z,64.13
2023-04-15T03:13:35.110Z,64.68
2023-04-15T03:14:16.064Z,64.05
2023-04-15T03:14:51.259Z,65.05
2023-04-15T03:15:27.898Z,65.00
2023-04-15T03:16:01.284Z,63.67
2023-04-15T03:16:34.926Z,64.95
2023-04-15T03:17:06.863Z,64.80
2023-04-15T03:17:40.063Z,64.05
2023-04-15T03:18:12.924Z,64.13
2023-04-15T03:18:46.301Z,63.00
2023-04-15T03:19:18.806Z,65.60
2023-04-15T03:19:51.706Z,64.30
2023-04-15T03:20:24.218Z,63.53
2023-04-15T03:20:56.411Z,66.40
2023-04-15T03:21:29.965Z,64.47
2023-04-15T03:22:01.969Z,65.40
2023-04-15T03:22:34.137Z,63.15
2023-04-15T03:23:07.023Z,66.05
2023-04-15T03:23:39.351Z,65.15
2023-04-15T03:24:11.391Z,64.70
2023-04-15T03:24:44.369Z,64.25
2023-04-15T03:25:17.561Z,64.35
2023-04-15T03:25:50.595Z,64.22
2023-04-15T03:26:27.591Z,64.82
2023-04-15T03:27:01.967Z,64.93
2023-04-15T03:27:36.335Z,64.72
2023-04-15T03:28:09.070Z,64.60
2023-04-15T03:28:41.059Z,65.22
2023-04-15T03:29:13.990Z,64.57
2023-04-15T03:29:46.401Z,63.53
2023-04-15T03:30:20.131Z,64.90
2023-04-15T03:30:53.088Z,64.20
2023-04-15T03:31:25.158Z,65.85
2023-04-15T03:31:57.225Z,64.60
2023-04-15T03:32:30.219Z,65.05
2023-04-15T03:33:02.269Z,64.80
2023-04-15T03:33:34.366Z,64.32
2023-04-15T03:34:07.402Z,64.65
2023-04-15T03:34:39.317Z,64.57
2023-04-15T03:35:11.250Z,64.70
2023-04-15T03:35:44.126Z,65.47
2023-04-15T03:36:17.818Z,65.05
2023-04-15T03:36:49.801Z,64.22
2023-04-15T03:37:21.712Z,63.92
2023-04-15T03:37:54.581Z,64.88
2023-04-15T03:38:27.079Z,65.18
2023-04-15T03:38:59.255Z,64.70
2023-04-15T03:39:32.351Z,64.88
2023-04-15T03:40:04.757Z,65.05
2023-04-15T03:40:36.771Z,64.60
2023-04-15T03:41:09.829Z,64.47
2023-04-15T03:41:41.742Z,65.72
2023-04-15T03:42:13.651Z,63.65
2023-04-15T03:42:47.993Z,65.35
2023-04-15T03:43:19.923Z,65.68
2023-04-15T03:43:55.193Z,64.85
2023-04-15T03:44:28.282Z,63.88
2023-04-15T03:45:00.739Z,65.32
2023-04-15T03:45:32.879Z,64.78
2023-04-15T03:46:06.132Z,64.43
2023-04-15T03:46:38.229Z,65.75
2023-04-15T03:47:10.243Z,64.50
2023-04-15T03:47:43.380Z,64.68
2023-04-15T03:48:17.454Z,64.15
2023-04-15T03:48:50.165Z,64.13
2023-04-15T03:49:23.311Z,66.25
2023-04-15T03:49:55.226Z,60.75
2023-04-15T03:50:27.741Z,63.45
2023-04-15T03:51:00.746Z,65.43
2023-04-15T03:51:32.733Z,66.35
2023-04-15T03:52:04.776Z,64.10
2023-04-15T03:52:37.679Z,64.60
2023-04-15T03:53:10.324Z,65.40
2023-04-15T03:53:42.235Z,64.57
2023-04-15T03:54:15.310Z,65.32
2023-04-15T03:54:47.798Z,65.00
2023-04-15T03:55:20.177Z,63.75
2023-04-15T03:55:53.072Z,65.28
2023-04-15T03:56:25.116Z,64.68
2023-04-15T03:56:57.700Z,66.05
2023-04-15T03:57:29.696Z,64.85
2023-04-15T03:58:04.001Z,65.22
2023-04-15T03:58:35.900Z,65.50
2023-04-15T03:59:08.038Z,65.72
2023-04-15T03:59:41.103Z,65.43
2023-04-15T04:00:13.249Z,65.78
2023-04-15T04:00:45.318Z,64.85
2023-04-15T04:01:18.493Z,65.00
2023-04-15T04:01:50.935Z,64.95
2023-04-15T04:02:23.165Z,65.30
2023-04-15T04:02:56.496Z,65.40
2023-04-15T04:03:28.703Z,65.07
2023-04-15T04:04:01.049Z,65.80
2023-04-15T04:04:33.218Z,68.25
2023-04-15T04:05:06.554Z,65.82
2023-04-15T04:05:39.128Z,66.45
2023-04-15T04:06:12.499Z,65.38
2023-04-15T04:06:47.184Z,65.22
2023-04-15T04:07:19.140Z,65.93
2023-04-15T04:07:51.098Z,65.82
2023-04-15T04:08:23.957Z,65.07
2023-04-15T04:08:55.936Z,64.60
2023-04-15T04:09:27.926Z,65.10
2023-04-15T04:10:01.458Z,65.13
2023-04-15T04:10:33.438Z,64.95
2023-04-15T04:11:05.529Z,65.82
2023-04-15T04:11:38.619Z,66.13
2023-04-15T04:12:10.588Z,65.30
2023-04-15T04:12:42.528Z,65.90
2023-04-15T04:13:17.164Z,67.03
2023-04-15T04:13:49.069Z,65.82
2023-04-15T04:14:26.596Z,65.15
2023-04-15T04:14:58.514Z,65.43
2023-04-15T04:15:30.421Z,67.07
2023-04-15T04:16:04.755Z,66.60
2023-04-15T04:16:36.889Z,65.88
2023-04-15T04:17:09.236Z,65.85
2023-04-15T04:17:42.313Z,66.13
2023-04-15T04:18:14.277Z,65.95
2023-04-15T04:18:46.525Z,66.55
2023-04-15T04:19:20.344Z,65.45
2023-04-15T04:19:52.349Z,65.70
2023-04-15T04:20:24.288Z,65.97
2023-04-15T04:20:57.178Z,66.28
2023-04-15T04:21:29.166Z,66.70
2023-04-15T04:22:01.572Z,67.30
2023-04-15T04:22:39.087Z,66.35
2023-04-15T04:23:11.516Z,66.32
2023-04-15T04:23:43.515Z,64.68
2023-04-15T04:24:16.572Z,66.05
2023-04-15T04:24:48.538Z,66.07
2023-04-15T04:25:20.525Z,66.90
2023-04-15T04:25:53.682Z,65.82
2023-04-15T04:26:26.006Z,64.47
2023-04-15T04:26:58.131Z,66.05
2023-04-15T04:27:31.000Z,66.72
2023-04-15T04:28:02.982Z,66.07
2023-04-15T04:28:36.576Z,65.82
2023-04-15T04:29:09.507Z,64.97
2023-04-15T04:29:41.471Z,66.45
2023-04-15T04:30:13.402Z,65.18
2023-04-15T04:30:46.458Z,65.97
2023-04-15T04:31:18.679Z,66.57
2023-04-15T04:31:51.093Z,67.20
2023-04-15T04:32:24.119Z,67.38
2023-04-15T04:32:56.087Z,65.72
2023-04-15T04:33:27.992Z,66.13
2023-04-15T04:34:01.019Z,65.50
2023-04-15T04:34:32.962Z,65.95
2023-04-15T04:35:05.237Z,67.28
2023-04-15T04:35:38.272Z,66.85
2023-04-15T04:36:10.192Z,64.13
2023-04-15T04:36:42.283Z,66.70
2023-04-15T04:37:15.558Z,66.78
2023-04-15T04:37:47.533Z,67.43
2023-04-15T04:38:20.592Z,65.03
2023-04-15T04:38:52.541Z,66.90
2023-04-15T04:39:24.520Z,66.57
2023-04-15T04:39:57.379Z,66.95
2023-04-15T04:40:29.418Z,67.00
2023-04-15T04:41:01.523Z,67.10
2023-04-15T04:41:34.470Z,67.80
2023-04-15T04:42:06.400Z,66.15
2023-04-15T04:42:39.836Z,65.97
2023-04-15T04:43:14.652Z,67.32
2023-04-15T04:43:47.921Z,65.95
2023-04-15T04:44:19.848Z,67.10
2023-04-15T04:44:52.767Z,67.88
2023-04-15T04:45:24.787Z,67.70
2023-04-15T04:45:57.045Z,65.35
2023-04-15T04:46:30.152Z,67.57
2023-04-15T04:47:02.203Z,67.85
2023-04-15T04:47:34.142Z,67.90
2023-04-15T04:48:08.751Z,67.47
2023-04-15T04:48:41.077Z,66.18
2023-04-15T04:49:12.988Z,67.13
2023-04-15T04:49:45.848Z,66.78
2023-04-15T04:50:17.837Z,67.30
2023-04-15T04:50:50.944Z,68.22
2023-04-15T04:51:22.940Z,68.63
2023-04-15T04:51:54.996Z,68.72
2023-04-15T04:52:27.907Z,67.63
2023-04-15T04:52:59.867Z,67.78
2023-04-15T04:53:32.814Z,67.63
2023-04-15T04:54:04.839Z,67.78
2023-04-15T04:54:37.196Z,67.18
2023-04-15T04:55:10.522Z,67.68
2023-04-15T04:55:42.503Z,66.20
2023-04-15T04:56:14.415Z,65.50
2023-04-15T04:56:47.265Z,67.63
2023-04-15T04:57:19.156Z,66.13
2023-04-15T04:57:51.446Z,66.80
2023-04-15T04:58:24.382Z,67.47
2023-04-15T04:58:57.591Z,66.85
2023-04-15T04:59:29.583Z,66.20
2023-04-15T05:00:03.374Z,67.60
2023-04-15T05:00:38.482Z,66.00
2023-04-15T05:01:10.639Z,68.10
2023-04-15T05:01:43.668Z,67.25
2023-04-15T05:02:16.093Z,68.07
2023-04-15T05:02:48.410Z,67.88
2023-04-15T05:03:22.003Z,68.22
2023-04-15T05:03:54.574Z,68.05
2023-04-15T05:04:27.506Z,66.78
2023-04-15T05:04:59.459Z,66.78
2023-04-15T05:05:31.433Z,68.93
2023-04-15T05:06:06.517Z,67.82
2023-04-15T05:06:38.480Z,67.53
2023-04-15T05:07:10.839Z,68.25
2023-04-15T05:07:43.724Z,66.55
2023-04-15T05:08:15.660Z,66.25
2023-04-15T05:08:47.806Z,66.18
2023-04-15T05:09:20.826Z,67.47
2023-04-15T05:09:52.857Z,66.93
2023-04-15T05:10:25.704Z,66.65
2023-04-15T05:10:57.609Z,64.63
2023-04-15T05:11:29.574Z,67.13
2023-04-15T05:12:02.769Z,67.50
2023-04-15T05:12:35.647Z,66.40
2023-04-15T05:13:08.572Z,66.63
2023-04-15T05:13:40.799Z,68.68
2023-04-15T05:14:14.136Z,67.10
2023-04-15T05:14:47.049Z,66.45
2023-04-15T05:15:19.278Z,68.60
2023-04-15T05:15:51.591Z,67.40
2023-04-15T05:16:25.871Z,69.13
2023-04-15T05:17:00.679Z,68.28
2023-04-15T05:17:33.364Z,68.38
2023-04-15T05:18:06.563Z,65.93
2023-04-15T05:18:38.528Z,67.00
2023-04-15T05:19:10.450Z,66.85
2023-04-15T05:19:43.392Z,67.63
2023-04-15T05:20:15.653Z,67.43
2023-04-15T05:20:47.804Z,67.38
2023-04-15T05:21:20.773Z,68.53
2023-04-15T05:21:52.782Z,66.63
2023-04-15T05:22:24.768Z,67.55
2023-04-15T05:22:57.663Z,66.88
2023-04-15T05:23:29.685Z,67.88
2023-04-15T05:24:01.649Z,66.90
2023-04-15T05:24:34.521Z,68.03
2023-04-15T05:25:07.051Z,69.00
2023-04-15T05:25:39.005Z,67.70
2023-04-15T05:26:11.994Z,67.80
2023-04-15T05:26:44.040Z,66.88
2023-04-15T05:27:16.114Z,69.00
2023-04-15T05:27:49.082Z,67.47
2023-04-15T05:28:21.183Z,67.68
2023-04-15T05:28:53.115Z,67.53
2023-04-15T05:29:27.311Z,66.15
2023-04-15T05:29:59.283Z,68.15
2023-04-15T05:30:31.276Z,68.93
2023-04-15T05:31:04.493Z,67.97
2023-04-15T05:31:37.017Z,69.47
2023-04-15T05:32:09.013Z,67.80
2023-04-15T05:32:41.994Z,68.30
2023-04-15T05:33:13.983Z,68.50
2023-04-15T05:33:45.911Z,68.17
2023-04-15T05:34:19.006Z,68.07
2023-04-15T05:34:51.353Z,70.00
2023-04-15T05:35:23.317Z,67.82
2023-04-15T05:35:56.313Z,67.13
2023-04-15T05:36:28.671Z,67.70
2023-04-15T05:37:00.770Z,67.03
2023-04-15T05:37:33.670Z,67.38
2023-04-15T05:38:05.601Z,66.75
2023-04-15T05:38:37.495Z,67.10
2023-04-15T05:39:10.411Z,69.53
2023-04-15T05:39:42.388Z,68.78
2023-04-15T05:40:15.592Z,69.32
2023-04-15T05:40:47.492Z,67.82
2023-04-15T05:41:19.950Z,68.60
2023-04-15T05:41:53.282Z,68.00
2023-04-15T05:42:25.214Z,68.45
2023-04-15T05:42:57.564Z,67.20
2023-04-15T05:43:30.740Z,68.07
2023-04-15T05:44:02.744Z,69.90
2023-04-15T05:44:36.151Z,68.40
2023-04-15T05:45:10.020Z,67.20
2023-04-15T05:45:41.989Z,67.20
2023-04-15T05:46:13.933Z,69.00
2023-04-15T05:46:47.168Z,68.82
2023-04-15T05:47:19.402Z,68.40
2023-04-15T05:47:54.233Z,67.50
2023-04-15T05:48:27.373Z,67.07
2023-04-15T05:48:59.523Z,67.68
2023-04-15T05:49:31.900Z,66.50
2023-04-15T05:50:05.415Z,68.38
2023-04-15T05:50:37.336Z,67.65
2023-04-15T05:51:09.773Z,65.60
2023-04-15T05:51:42.703Z,68.22
2023-04-15T05:52:14.616Z,67.80
2023-04-15T05:52:46.572Z,68.72
2023-04-15T05:53:19.482Z,67.13
2023-04-15T05:53:51.409Z,68.25
2023-04-15T05:54:23.570Z,68.40
2023-04-15T05:54:56.509Z,67.35
2023-04-15T05:55:28.401Z,68.28
2023-04-15T05:56:00.639Z,67.82
2023-04-15T05:56:33.721Z,69.85
2023-04-15T05:57:05.637Z,67.15
2023-04-15T05:57:37.765Z,67.57
2023-04-15T05:58:11.410Z,68.80
2023-04-15T05:58:43.301Z,68.40
2023-04-15T05:59:15.310Z,68.25
2023-04-15T05:59:51.557Z,68.55
2023-04-15T06:00:23.563Z,68.60
2023-04-15T06:00:55.629Z,68.57
2023-04-15T06:01:28.843Z,68.50
2023-04-15T06:02:00.918Z,68.30
2023-04-15T06:02:33.415Z,68.22
2023-04-15T06:03:06.554Z,67.53
2023-04-15T06:03:39.119Z,67.75
2023-04-15T06:04:11.693Z,69.82
2023-04-15T06:04:44.903Z,67.90
2023-04-15T06:05:16.967Z,67.03
2023-04-15T06:05:49.266Z,67.13
2023-04-15T06:06:22.249Z,67.10
2023-04-15T06:06:54.344Z,67.82
2023-04-15T06:07:26.465Z,68.90
2023-04-15T06:07:59.404Z,68.72
2023-04-15T06:08:31.396Z,68.07
2023-04-15T06:09:03.678Z,66.72
2023-04-15T06:09:36.910Z,68.53
2023-04-15T06:10:09.960Z,69.93
2023-04-15T06:10:41.937Z,68.22
2023-04-15T06:11:14.835Z,69.78
2023-04-15T06:11:46.804Z,68.50
2023-04-15T06:12:18.746Z,69.28
2023-04-15T06:12:53.685Z,70.60
2023-04-15T06:13:25.740Z,68.53
2023-04-15T06:13:57.695Z,68.65
2023-04-15T06:14:30.647Z,69.07
2023-04-15T06:15:04.481Z,67.68
2023-04-15T06:15:37.697Z,68.33
2023-04-15T06:16:09.816Z,68.82
2023-04-15T06:16:42.486Z,68.57
2023-04-15T06:17:18.392Z,68.15
2023-04-15T06:17:50.465Z,68.07
2023-04-15T06:18:23.448Z,67.97
2023-04-15T06:18:55.372Z,68.72
2023-04-15T06:19:27.323Z,68.55
2023-04-15T06:20:00.259Z,67.40
2023-04-15T06:20:32.683Z,68.93
2023-04-15T06:21:04.916Z,67.90
2023-04-15T06:21:37.907Z,68.88
2023-04-15T06:22:09.838Z,69.95
2023-04-15T06:22:41.788Z,68.22
2023-04-15T06:23:14.760Z,69.22
2023-04-15T06:23:46.773Z,69.38
2023-04-15T06:24:19.169Z,70.28
2023-04-15T06:24:53.404Z,69.05
2023-04-15T06:25:25.702Z,68.20
2023-04-15T06:25:58.232Z,68.45
2023-04-15T06:26:31.518Z,69.88
2023-04-15T06:27:07.351Z,67.70
2023-04-15T06:27:40.114Z,68.28
2023-04-15T06:28:13.748Z,68.10
2023-04-15T06:28:49.731Z,69.85
2023-04-15T06:29:27.857Z,69.63
2023-04-15T06:30:07.894Z,68.35
2023-04-15T06:30:42.748Z,69.13
2023-04-15T06:31:15.929Z,69.28
2023-04-15T06:31:52.882Z,69.20
2023-04-15T06:32:25.782Z,70.47
2023-04-15T06:32:59.694Z,67.65
2023-04-15T06:33:33.319Z,68.35
2023-04-15T06:34:05.487Z,66.80
2023-04-15T06:34:37.727Z,69.47
2023-04-15T06:35:12.578Z,68.38
2023-04-15T06:35:46.297Z,69.60
2023-04-15T06:36:28.757Z,70.32
2023-04-15T06:37:30.900Z,68.50
2023-04-15T06:38:02.847Z,69.05
2023-04-15T06:38:36.068Z,68.00
2023-04-15T06:39:08.078Z,69.80
2023-04-15T06:39:40.330Z,70.30
2023-04-15T06:40:14.239Z,70.00
2023-04-15T06:40:46.426Z,69.53
2023-04-15T06:41:19.576Z,67.65
2023-04-15T06:41:51.602Z,69.88
2023-04-15T06:42:26.575Z,70.53
2023-04-15T06:43:00.198Z,70.40
2023-04-15T06:43:32.380Z,69.30
2023-04-15T06:44:04.574Z,69.30
2023-04-15T06:44:37.669Z,68.68
2023-04-15T06:45:12.004Z,69.50
2023-04-15T06:45:44.950Z,70.15
2023-04-15T06:46:17.180Z,70.30
2023-04-15T06:46:49.237Z,70.15
2023-04-15T06:47:22.499Z,69.97
2023-04-15T06:47:54.564Z,69.70
2023-04-15T06:48:26.572Z,70.78
2023-04-15T06:48:59.595Z,69.53
2023-04-15T06:49:31.836Z,70.25
2023-04-15T06:50:04.160Z,69.53
2023-04-15T06:50:37.725Z,71.30
2023-04-15T06:51:09.722Z,70.32
2023-04-15T06:51:43.925Z,69.38
2023-04-15T06:52:16.699Z,69.18
2023-04-15T06:52:48.699Z,69.40
2023-04-15T06:53:22.106Z,70.10
2023-04-15T06:53:54.133Z,69.22
2023-04-15T06:54:26.041Z,71.00
2023-04-15T06:54:59.538Z,71.18
2023-04-15T06:55:32.318Z,69.85
2023-04-15T06:56:04.570Z,69.55
2023-04-15T06:56:37.558Z,69.72
2023-04-15T06:57:09.854Z,70.40
2023-04-15T06:57:41.914Z,69.05
2023-04-15T06:58:17.285Z,69.90
2023-04-15T06:58:49.578Z,69.60
2023-04-15T06:59:22.510Z,69.93
2023-04-15T06:59:55.114Z,69.18
2023-04-15T07:00:28.907Z,69.72
2023-04-15T07:01:02.272Z,70.47
2023-04-15T07:01:34.367Z,69.68
2023-04-15T07:02:12.545Z,69.05
2023-04-15T07:02:46.721Z,68.72
2023-04-15T07:03:19.013Z,68.85
2023-04-15T07:03:51.671Z,67.85
2023-04-15T07:04:24.731Z,67.53
2023-04-15T07:04:57.009Z,68.90